createdAt,value
2022-09-26T04:35:55.455Z,20.80
2022-09-26T04:41:05.264Z,21.47
2022-09-26T04:46:17.176Z,21.30
2022-09-26T04:51:25.439Z,24.00
2022-09-26T04:56:29.263Z,22.13
2022-09-26T05:01:32.041Z,21.70
2022-09-26T05:06:34.790Z,22.43
2022-09-26T05:11:37.516Z,23.00
2022-09-26T05:16:40.340Z,22.20
2022-09-26T05:21:43.302Z,22.53
2022-09-26T05:26:53.215Z,23.17
2022-09-26T05:31:56.512Z,22.90
2022-09-26T05:36:59.408Z,24.60
2022-09-26T05:42:04.508Z,26.47
2022-09-26T05:47:08.612Z,27.30
2022-09-26T05:52:11.857Z,27.17
2022-09-26T05:57:14.575Z,25.07
2022-09-26T06:02:20.677Z,25.23
2022-09-26T06:07:23.878Z,23.50
2022-09-26T06:12:29.636Z,23.07
2022-09-26T06:17:32.592Z,24.53
2022-09-26T06:22:42.298Z,24.97
2022-09-26T06:27:45.176Z,26.10
2022-09-26T06:32:47.861Z,24.50
2022-09-26T06:37:50.551Z,23.40
2022-09-26T06:42:55.937Z,23.50
2022-09-26T06:48:02.540Z,20.77
2022-09-26T06:53:10.454Z,20.57
2022-09-26T06:58:13.303Z,21.00
2022-09-26T07:03:16.080Z,20.60
2022-09-26T07:08:19.423Z,22.53
2022-09-26T07:13:22.337Z,21.47
2022-09-26T07:18:25.449Z,23.80
2022-09-26T07:23:28.135Z,21.17
2022-09-26T07:28:31.230Z,21.77
2022-09-26T07:33:33.950Z,20.67
2022-09-26T07:38:36.713Z,19.97
2022-09-26T07:49:20.644Z,19.87
2022-09-26T07:54:24.285Z,20.87
2022-09-26T07:59:28.120Z,18.47
2022-09-26T08:04:30.876Z,18.63
2022-09-26T08:09:33.636Z,18.97
2022-09-26T08:14:37.560Z,16.77
2022-09-26T08:19:40.302Z,16.63
2022-09-26T08:24:50.962Z,16.97
2022-09-26T08:29:53.800Z,16.93
2022-09-26T08:34:56.566Z,15.80
2022-09-26T08:40:00.864Z,16.13
2022-09-26T08:45:37.326Z,14.43
2022-09-26T08:51:05.357Z,15.40
2022-09-26T08:56:35.140Z,14.83
2022-09-26T09:01:41.070Z,14.50
2022-09-26T09:06:44.122Z,13.57
2022-09-26T09:12:24.321Z,13.63
2022-09-26T09:17:38.340Z,14.47
2022-09-26T09:22:52.873Z,14.00
2022-09-26T09:28:08.399Z,14.90
2022-09-26T09:33:17.686Z,13.90
2022-09-26T09:38:28.686Z,13.77
2022-09-26T09:44:02.288Z,13.23
2022-09-26T09:49:19.935Z,13.60
2022-09-26T09:54:59.488Z,14.97
2022-09-26T10:00:19.729Z,14.30
2022-09-26T10:05:42.806Z,17.27
2022-09-26T10:11:02.164Z,18.37
2022-09-26T10:16:09.990Z,13.40
2022-09-26T10:21:16.449Z,13.30
2022-09-26T10:26:34.892Z,11.73
2022-09-26T10:31:43.148Z,12.00
2022-09-26T10:36:46.238Z,9.70
2022-09-26T10:41:49.260Z,13.63
2022-09-26T10:46:56.545Z,13.83
2022-09-26T10:52:18.605Z,11.53
2022-09-26T10:57:50.615Z,10.27
2022-09-26T11:02:53.648Z,9.20
2022-09-26T11:07:57.638Z,8.17
2022-09-26T11:13:18.168Z,7.27
2022-09-26T11:18:26.797Z,7.00
2022-09-26T11:23:35.330Z,7.77
2022-09-26T11:28:41.549Z,8.10
2022-09-26T11:33:45.214Z,8.97
2022-09-26T11:39:02.349Z,6.40
2022-09-26T11:44:35.881Z,6.10
2022-09-26T11:49:44.607Z,7.33
2022-09-26T11:55:09.138Z,5.77
2022-09-26T12:00:26.479Z,5.83
2022-09-26T12:05:59.439Z,4.27
2022-09-26T12:11:02.067Z,7.10
2022-09-26T12:16:16.109Z,4.63
2022-09-26T12:21:42.308Z,3.80
2022-09-26T12:26:59.679Z,4.40
2022-09-26T12:32:26.966Z,4.83
2022-09-26T12:37:57.361Z,4.30
2022-09-26T12:43:28.943Z,5.00
2022-09-26T12:48:44.764Z,3.90
2022-09-26T12:54:09.644Z,5.07
2022-09-26T12:59:39.633Z,5.03
2022-09-26T13:05:03.848Z,4.73
2022-09-26T13:10:22.617Z,4.40
2022-09-26T13:15:37.554Z,4.50
2022-09-26T13:20:54.002Z,3.90
2022-09-26T13:26:04.226Z,4.27
2022-09-26T13:31:17.629Z,4.13
2022-09-26T13:36:22.210Z,3.17
2022-09-26T13:41:43.444Z,3.20
2022-09-26T13:47:09.435Z,3.70
2022-09-26T13:52:41.571Z,4.10
2022-09-26T13:58:03.775Z,5.17
2022-09-26T14:03:19.406Z,4.77
2022-09-26T14:08:43.934Z,4.83
2022-09-26T14:13:48.352Z,5.00
2022-09-26T14:19:05.061Z,5.00
2022-09-26T14:24:26.481Z,5.20
2022-09-26T14:29:29.409Z,4.80
2022-09-26T14:34:59.244Z,5.50
2022-09-26T14:40:21.015Z,5.20
2022-09-26T14:45:26.568Z,5.10
2022-09-26T14:50:34.423Z,5.57
2022-09-26T14:55:37.378Z,6.07
2022-09-26T15:00:43.162Z,6.20
2022-09-26T15:05:46.505Z,6.97
2022-09-26T15:10:49.951Z,6.33
2022-09-26T15:16:02.051Z,5.33
2022-09-26T15:21:23.533Z,5.77
2022-09-26T15:26:36.782Z,5.60
2022-09-26T15:31:41.654Z,5.40
2022-09-26T15:36:48.594Z,4.70
2022-09-26T15:42:09.704Z,4.43
2022-09-26T15:47:39.209Z,4.87
2022-09-26T15:53:03.191Z,5.30
2022-09-26T15:58:08.271Z,5.30
2022-09-26T16:03:36.894Z,5.23
2022-09-26T16:08:42.232Z,4.90
2022-09-26T16:13:49.478Z,5.50
2022-09-26T16:18:57.934Z,5.67
2022-09-26T16:24:22.544Z,10.87
2022-09-26T16:29:34.982Z,16.13
2022-09-26T16:34:37.719Z,13.30
2022-09-26T16:39:41.191Z,8.67
2022-09-26T16:44:52.138Z,12.77
2022-09-26T16:49:55.091Z,14.50
2022-09-26T16:55:00.454Z,11.10
2022-09-26T17:00:35.067Z,10.47
2022-09-26T17:05:37.842Z,10.50
2022-09-26T17:10:41.583Z,14.63
2022-09-26T17:15:47.746Z,14.53
2022-09-26T17:20:50.714Z,12.10
2022-09-26T17:25:57.577Z,13.03
2022-09-26T17:31:06.486Z,12.03
2022-09-26T17:36:21.038Z,13.20
2022-09-26T17:41:25.414Z,10.07
2022-09-26T17:46:28.460Z,8.80
2022-09-26T17:51:31.389Z,10.80
2022-09-26T17:56:34.524Z,10.77
2022-09-26T18:01:37.461Z,10.17
2022-09-26T18:06:42.396Z,11.20
2022-09-26T18:11:59.830Z,11.87
2022-09-26T18:17:03.475Z,11.23
2022-09-26T18:22:09.824Z,10.77
2022-09-26T18:27:14.174Z,10.00
2022-09-26T18:32:34.519Z,11.43
2022-09-26T18:37:37.372Z,10.10
2022-09-26T18:42:40.800Z,10.17
2022-09-26T18:47:45.112Z,9.70
2022-09-26T18:52:48.110Z,9.10
2022-09-26T18:58:09.379Z,8.37
2022-09-26T19:03:12.345Z,10.47
2022-09-26T19:08:26.648Z,10.33
2022-09-26T19:13:30.292Z,9.60
2022-09-26T19:18:33.269Z,9.70
2022-09-26T19:23:36.995Z,9.43
2022-09-26T19:28:40.038Z,11.27
2022-09-26T19:33:45.289Z,10.07
2022-09-26T19:38:48.221Z,8.33
2022-09-26T19:43:51.209Z,8.43
2022-09-26T19:48:54.353Z,8.10
2022-09-26T19:53:57.114Z,8.47
2022-09-26T19:59:00.314Z,11.37
2022-09-26T20:04:03.169Z,10.53
2022-09-26T20:09:10.677Z,13.40
2022-09-26T20:14:25.366Z,14.67
2022-09-26T20:19:28.663Z,15.53
2022-09-26T20:24:32.395Z,15.57
2022-09-26T20:29:55.493Z,19.03
2022-09-26T20:35:00.456Z,20.03
2022-09-26T20:40:12.109Z,20.90
2022-09-26T20:45:29.156Z,19.17
2022-09-26T20:50:34.114Z,17.20
2022-09-26T20:55:41.860Z,17.83
2022-09-26T21:00:47.204Z,17.83
2022-09-26T21:05:50.047Z,18.27
2022-09-26T21:10:53.129Z,16.23
2022-09-26T21:15:55.854Z,17.53
2022-09-26T21:21:04.835Z,19.37
2022-09-26T21:26:11.016Z,19.40
2022-09-26T21:31:24.193Z,21.23
2022-09-26T21:36:34.687Z,20.53
2022-09-26T21:41:38.210Z,18.73
2022-09-26T21:46:40.988Z,17.60
2022-09-26T21:51:46.194Z,18.57
2022-09-26T21:56:53.306Z,16.53
2022-09-26T22:01:56.146Z,18.97
2022-09-26T22:06:58.972Z,20.07
2022-09-26T22:12:01.891Z,19.53
2022-09-26T22:17:04.703Z,18.47
2022-09-26T22:22:07.657Z,16.87
2022-09-26T22:27:10.384Z,16.50
2022-09-26T22:32:13.345Z,16.47
2022-09-26T22:37:16.302Z,15.03
2022-09-26T22:42:19.085Z,14.47
2022-09-26T22:47:22.092Z,13.20
2022-09-26T22:52:24.823Z,13.97
2022-09-26T22:57:27.683Z,14.67
2022-09-26T23:02:30.533Z,13.87
2022-09-26T23:07:33.303Z,14.50
2022-09-26T23:12:37.715Z,14.13
2022-09-26T23:17:40.408Z,14.87
2022-09-26T23:22:43.190Z,13.73
2022-09-26T23:27:45.882Z,15.03
